모두
Nangis-Les Loges Airport LFAI 기상
There is no TAF data available at LFAI or any nearby airports.
There is no METAR data available at LFAI. Showing METAR data for LFPM (15 mi 서).
최근 LFPM METAR 이력(LFAI에 대한 데이터 없음)
| Date | Time (CEST) | Flight Rules | Wind Dir. | Speed | Type | Height AGL (ft) | Visibility | Temp (°C) | Temp (°F) | Dew Point (°C) | Dew Point (°F) | Rel. Humid. | Pressure | Density Altitude | Remarks |
|---|---|---|---|---|---|---|---|---|---|---|---|---|---|---|---|
| 04-5월 | 00:30 | VFR | 160° | 4 kt | 10000 meters | 13° | 55° | 13° | 55° | 100% | 1012 mb | 98 ft | |||
| 04-5월 | 00:00 | VFR | 170° | 4 kt | 10000 meters | 13° | 55° | 13° | 55° | 100% | 1012 mb | 98 ft | |||
| 03-5월 | 23:30 | VFR | 180° | 4 kt | 10000 meters | 13° | 55° | 13° | 55° | 100% | 1012 mb | 98 ft | |||
| 03-5월 | 23:00 | VFR | 160° | 5 kt | 10000 meters | 13° | 55° | 13° | 55° | 100% | 1012 mb | 98 ft | |||
| 03-5월 | 22:30 | VFR | 170° | 6 kt | 10000 meters | 13° | 55° | 13° | 55° | 100% | 1012 mb | 98 ft | |||
| 03-5월 | 22:00 | VFR | 180° | 6 kt | 10000 meters | 14° | 57° | 13° | 55° | 94% | 1012 mb | 218 ft | |||
| 03-5월 | 21:30 | VFR | 160° | 5 kt | 10000 meters | 14° | 57° | 13° | 55° | 94% | 1011 mb | 247 ft | |||
| 03-5월 | 21:00 | VFR | 160° | 7 kt | 10000 meters | 15° | 59° | 14° | 57° | 94% | 1011 mb | 367 ft | |||
| 03-5월 | 20:30 | VFR | 170° | 7 kt | 10000 meters | 16° | 60° | 15° | 59° | 94% | 1011 mb | 487 ft | |||
| 03-5월 | 20:00 | VFR | 150° | 7 kt | 10000 meters | 17° | 62° | 15° | 59° | 88% | 1011 mb | 607 ft | |||
| 03-5월 | 19:30 | VFR | 170° | 7 kt | 10000 meters | 18° | 64° | 14° | 57° | 77% | 1010 mb | 757 ft | |||
| 03-5월 | 19:00 | VFR | 170° | 8 kt | 10000 meters | 18° | 64° | 15° | 59° | 83% | 1011 mb | 727 ft | |||
| 03-5월 | 18:30 | VFR | 190° | 5 kt | 10000 meters | 19° | 66° | 16° | 60° | 83% | 1010 mb | 877 ft | |||
| 03-5월 | 18:00 | VFR | 220° | 6 kt | 10000 meters | 18° | 64° | 15° | 59° | 83% | 1011 mb | 727 ft | |||
| 03-5월 | 17:30 | VFR | 210° | 7 kt | 10000 meters | 18° | 64° | 16° | 60° | 88% | 1011 mb | 727 ft | |||
| 03-5월 | 17:00 | VFR | 230° | 5 kt | 10000 meters | 18° | 64° | 16° | 60° | 88% | 1011 mb | 727 ft | |||
| 03-5월 | 16:30 | VFR | 250° | 5 kt | 10000 meters | 17° | 62° | 16° | 60° | 94% | 1011 mb | 607 ft | |||
| 03-5월 | 16:00 | VFR | 230° | 7 kt | 10000 meters | 17° | 62° | 15° | 59° | 88% | 1012 mb | 578 ft | |||
| 03-5월 | 15:30 | VFR | 180° | 10 kt | 10000 meters | 20° | 68° | 14° | 57° | 68% | 1011 mb | 967 ft | |||
| 03-5월 | 15:00 | VFR | 190° | 10 kt | 10000 meters | 19° | 66° | 15° | 59° | 78% | 1012 mb | 818 ft | |||
| 03-5월 | 14:30 | VFR | 180° | 9 kt | 10000 meters | 17° | 62° | 15° | 59° | 88% | 1012 mb | 578 ft | |||
| 03-5월 | 14:00 | VFR | 210° | 8 kt | 10000 meters | 16° | 60° | 15° | 59° | 94% | 1012 mb | 458 ft | |||
| 03-5월 | 13:30 | VFR | 200° | 10 kt | 10000 meters | 16° | 60° | 14° | 57° | 88% | 1012 mb | 458 ft | |||
| 03-5월 | 13:00 | VFR | 190° | 8 kt | 10000 meters | 16° | 60° | 15° | 59° | 94% | 1012 mb | 458 ft |
로그인
| 귀하의 브라우저는 지원되지 않습니다.. 브라우저를 업그레이드하세요 |
